sensor_id;sensor_type;location;lat;lon;timestamp;noise_LAeq;noise_LA_min;noise_LA_max;noise_LA01;noise_LA95
66455;Laerm;57651;51.438;5.982;2022-10-28T00:00:06;32.11;31.14;32.96;;
66455;Laerm;57651;51.438;5.982;2022-10-28T00:00:16;32.19;31.36;33.17;;
66455;Laerm;57651;51.438;5.982;2022-10-28T00:00:27;32.15;31.26;33.02;;
66455;Laerm;57651;51.438;5.982;2022-10-28T00:00:37;32.11;31.06;33.01;;
66455;Laerm;57651;51.438;5.982;2022-10-28T00:00:48;32.07;30.97;33.23;;
66455;Laerm;57651;51.438;5.982;2022-10-28T00:01:21;32.10;30.89;33.17;;
66455;Laerm;57651;51.438;5.982;2022-10-28T00:01:32;32.06;31.09;33.26;;
66455;Laerm;57651;51.438;5.982;2022-10-28T00:01:42;32.05;31.04;33.50;;
66455;Laerm;57651;51.438;5.982;2022-10-28T00:01:53;32.06;31.07;32.95;;
66455;Laerm;57651;51.438;5.982;2022-10-28T00:02:03;32.06;31.03;33.50;;
66455;Laerm;57651;51.438;5.982;2022-10-28T00:02:14;32.05;30.85;32.87;;
66455;Laerm;57651;51.438;5.982;2022-10-28T00:02:24;32.02;31.16;32.91;;
66455;Laerm;57651;51.438;5.982;2022-10-28T00:02:34;32.01;31.03;32.96;;
66455;Laerm;57651;51.438;5.982;2022-10-28T00:02:45;32.01;31.12;33.28;;
66455;Laerm;57651;51.438;5.982;2022-10-28T00:02:55;32.04;31.02;32.95;;
66455;Laerm;57651;51.438;5.982;2022-10-28T00:03:05;32.04;30.83;33.09;;
66455;Laerm;57651;51.438;5.982;2022-10-28T00:03:16;32.02;30.90;33.00;;
66455;Laerm;57651;51.438;5.982;2022-10-28T00:03:27;32.04;30.69;33.11;;
66455;Laerm;57651;51.438;5.982;2022-10-28T00:03:38;32.04;30.91;33.29;;
66455;Laerm;57651;51.438;5.982;2022-10-28T00:03:50;32.07;30.68;32.95;;
66455;Laerm;57651;51.438;5.982;2022-10-28T00:04:00;32.02;31.07;33.18;;
66455;Laerm;57651;51.438;5.982;2022-10-28T00:04:11;32.06;31.04;34.28;;
66455;Laerm;57651;51.438;5.982;2022-10-28T00:04:21;32.02;30.97;33.12;;
66455;Laerm;57651;51.438;5.982;2022-10-28T00:04:32;32.01;31.14;33.52;;
66455;Laerm;57651;51.438;5.982;2022-10-28T00:04:42;32.02;30.88;33.00;;
66455;Laerm;57651;51.438;5.982;2022-10-28T00:04:52;32.00;30.87;32.99;;
66455;Laerm;57651;51.438;5.982;2022-10-28T00:05:03;32.02;30.71;33.23;;
66455;Laerm;57651;51.438;5.982;2022-10-28T00:05:13;32.01;30.89;33.15;;
66455;Laerm;57651;51.438;5.982;2022-10-28T00:05:24;32.05;30.90;33.12;;
66455;Laerm;57651;51.438;5.982;2022-10-28T00:05:34;32.02;31.20;33.15;;
66455;Laerm;57651;51.438;5.982;2022-10-28T00:05:45;32.02;30.71;33.53;;
66455;Laerm;57651;51.438;5.982;2022-10-28T00:06:02;32.05;30.99;33.05;;
66455;Laerm;57651;51.438;5.982;2022-10-28T00:06:14;32.01;30.99;33.41;;
66455;Laerm;57651;51.438;5.982;2022-10-28T00:06:26;32.00;31.19;33.12;;
66455;Laerm;57651;51.438;5.982;2022-10-28T00:06:37;32.05;30.90;33.14;;
66455;Laerm;57651;51.438;5.982;2022-10-28T00:06:47;32.07;30.88;32.92;;
66455;Laerm;57651;51.438;5.982;2022-10-28T00:06:58;32.07;31.03;33.13;;
66455;Laerm;57651;51.438;5.982;2022-10-28T00:07:08;32.07;31.18;33.00;;
66455;Laerm;57651;51.438;5.982;2022-10-28T00:07:18;32.05;30.93;33.03;;
66455;Laerm;57651;51.438;5.982;2022-10-28T00:07:29;32.09;31.24;33.23;;
66455;Laerm;57651;51.438;5.982;2022-10-28T00:07:39;32.06;31.18;32.97;;
66455;Laerm;57651;51.438;5.982;2022-10-28T00:07:49;32.07;30.77;33.13;;
66455;Laerm;57651;51.438;5.982;2022-10-28T00:08:00;32.07;30.94;33.14;;
66455;Laerm;57651;51.438;5.982;2022-10-28T00:08:10;32.06;31.04;33.03;;
66455;Laerm;57651;51.438;5.982;2022-10-28T00:08:21;32.11;30.97;33.19;;
66455;Laerm;57651;51.438;5.982;2022-10-28T00:08:31;32.12;31.05;33.06;;
66455;Laerm;57651;51.438;5.982;2022-10-28T00:08:42;32.02;31.05;33.02;;
66455;Laerm;57651;51.438;5.982;2022-10-28T00:08:53;32.05;31.03;33.16;;
66455;Laerm;57651;51.438;5.982;2022-10-28T00:09:03;32.06;31.14;33.09;;
66455;Laerm;57651;51.438;5.982;2022-10-28T00:09:14;32.02;30.91;33.00;;
66455;Laerm;57651;51.438;5.982;2022-10-28T00:09:24;32.04;30.96;33.02;;
66455;Laerm;57651;51.438;5.982;2022-10-28T00:09:34;32.01;30.92;33.25;;
66455;Laerm;57651;51.438;5.982;2022-10-28T00:09:45;32.14;30.99;33.19;;
66455;Laerm;57651;51.438;5.982;2022-10-28T00:09:55;32.01;30.95;33.18;;
66455;Laerm;57651;51.438;5.982;2022-10-28T00:10:06;32.06;30.95;33.15;;
66455;Laerm;57651;51.438;5.982;2022-10-28T00:10:16;32.10;31.04;33.13;;
66455;Laerm;57651;51.438;5.982;2022-10-28T00:10:27;32.12;31.16;33.11;;
66455;Laerm;57651;51.438;5.982;2022-10-28T00:10:37;32.06;30.87;33.03;;
66455;Laerm;57651;51.438;5.982;2022-10-28T00:10:47;32.10;31.23;33.17;;
66455;Laerm;57651;51.438;5.982;2022-10-28T00:11:02;32.08;31.02;33.10;;
66455;Laerm;57651;51.438;5.982;2022-10-28T00:11:26;32.12;31.04;33.77;;
66455;Laerm;57651;51.438;5.982;2022-10-28T00:11:37;32.07;31.10;33.33;;
66455;Laerm;57651;51.438;5.982;2022-10-28T00:11:48;32.09;31.09;33.16;;
66455;Laerm;57651;51.438;5.982;2022-10-28T00:11:58;32.07;31.04;33.01;;
66455;Laerm;57651;51.438;5.982;2022-10-28T00:12:08;32.13;31.27;33.33;;
66455;Laerm;57651;51.438;5.982;2022-10-28T00:12:18;32.19;30.85;33.45;;
66455;Laerm;57651;51.438;5.982;2022-10-28T00:12:29;32.08;31.13;33.04;;
66455;Laerm;57651;51.438;5.982;2022-10-28T00:12:39;32.05;30.99;33.09;;
66455;Laerm;57651;51.438;5.982;2022-10-28T00:12:49;32.10;30.94;33.31;;
66455;Laerm;57651;51.438;5.982;2022-10-28T00:13:00;32.10;31.09;33.43;;
66455;Laerm;57651;51.438;5.982;2022-10-28T00:13:10;32.11;31.15;33.35;;
66455;Laerm;57651;51.438;5.982;2022-10-28T00:13:21;32.17;31.13;33.59;;
66455;Laerm;57651;51.438;5.982;2022-10-28T00:13:31;32.17;31.20;33.42;;
66455;Laerm;57651;51.438;5.982;2022-10-28T00:13:41;32.22;31.00;33.14;;
66455;Laerm;57651;51.438;5.982;2022-10-28T00:13:56;32.17;31.19;33.01;;
66455;Laerm;57651;51.438;5.982;2022-10-28T00:14:08;32.12;31.08;33.47;;
66455;Laerm;57651;51.438;5.982;2022-10-28T00:14:18;32.15;31.23;33.34;;
66455;Laerm;57651;51.438;5.982;2022-10-28T00:14:29;32.11;30.79;33.16;;
66455;Laerm;57651;51.438;5.982;2022-10-28T00:14:39;32.15;31.10;33.18;;
66455;Laerm;57651;51.438;5.982;2022-10-28T00:14:49;32.09;31.04;32.97;;
66455;Laerm;57651;51.438;5.982;2022-10-28T00:15:00;32.10;31.09;33.04;;
66455;Laerm;57651;51.438;5.982;2022-10-28T00:15:10;32.05;30.91;33.26;;
66455;Laerm;57651;51.438;5.982;2022-10-28T00:15:21;32.11;30.79;33.17;;
66455;Laerm;57651;51.438;5.982;2022-10-28T00:15:32;32.12;30.80;33.04;;
66455;Laerm;57651;51.438;5.982;2022-10-28T00:15:42;32.13;31.08;33.13;;
66455;Laerm;57651;51.438;5.982;2022-10-28T00:15:53;32.11;30.89;33.24;;
66455;Laerm;57651;51.438;5.982;2022-10-28T00:16:07;32.06;30.96;33.12;;
66455;Laerm;57651;51.438;5.982;2022-10-28T00:16:19;32.11;30.97;33.48;;
66455;Laerm;57651;51.438;5.982;2022-10-28T00:16:31;32.19;31.10;33.16;;
66455;Laerm;57651;51.438;5.982;2022-10-28T00:16:41;32.14;31.13;33.22;;
66455;Laerm;57651;51.438;5.982;2022-10-28T00:16:52;32.13;31.14;33.09;;
66455;Laerm;57651;51.438;5.982;2022-10-28T00:17:02;32.14;31.17;33.00;;
66455;Laerm;57651;51.438;5.982;2022-10-28T00:17:12;32.17;31.05;33.49;;
66455;Laerm;57651;51.438;5.982;2022-10-28T00:17:23;32.13;30.98;33.85;;
66455;Laerm;57651;51.438;5.982;2022-10-28T00:17:33;32.13;31.09;33.27;;
66455;Laerm;57651;51.438;5.982;2022-10-28T00:17:43;32.10;30.94;33.21;;
66455;Laerm;57651;51.438;5.982;2022-10-28T00:17:54;32.11;31.19;33.14;;
66455;Laerm;57651;51.438;5.982;2022-10-28T00:18:04;32.06;31.16;33.13;;
66455;Laerm;57651;51.438;5.982;2022-10-28T00:18:14;32.11;31.04;33.11;;
66455;Laerm;57651;51.438;5.982;2022-10-28T00:18:25;32.10;30.84;33.30;;
66455;Laerm;57651;51.438;5.982;2022-10-28T00:18:38;32.11;30.89;33.24;;
66455;Laerm;57651;51.438;5.982;2022-10-28T00:18:49;32.11;31.18;33.11;;
66455;Laerm;57651;51.438;5.982;2022-10-28T00:19:02;32.09;31.01;33.24;;
66455;Laerm;57651;51.438;5.982;2022-10-28T00:19:13;32.12;31.08;33.10;;
66455;Laerm;57651;51.438;5.982;2022-10-28T00:19:23;32.07;31.18;32.91;;
66455;Laerm;57651;51.438;5.982;2022-10-28T00:19:34;32.08;31.12;33.48;;
66455;Laerm;57651;51.438;5.982;2022-10-28T00:19:44;32.07;31.26;33.10;;
66455;Laerm;57651;51.438;5.982;2022-10-28T00:19:54;32.02;30.85;33.07;;
66455;Laerm;57651;51.438;5.982;2022-10-28T00:20:05;32.05;30.86;33.25;;
66455;Laerm;57651;51.438;5.982;2022-10-28T00:20:15;31.98;30.96;33.08;;
66455;Laerm;57651;51.438;5.982;2022-10-28T00:20:26;32.03;31.09;33.09;;
66455;Laerm;57651;51.438;5.982;2022-10-28T00:20:36;32.06;31.13;33.13;;
66455;Laerm;57651;51.438;5.982;2022-10-28T00:20:46;32.05;30.97;33.08;;
66455;Laerm;57651;51.438;5.982;2022-10-28T00:21:04;32.07;30.93;33.20;;
66455;Laerm;57651;51.438;5.982;2022-10-28T00:21:16;32.05;30.97;33.30;;
66455;Laerm;57651;51.438;5.982;2022-10-28T00:21:28;32.09;31.10;33.01;;
66455;Laerm;57651;51.438;5.982;2022-10-28T00:21:39;32.08;31.09;33.10;;
66455;Laerm;57651;51.438;5.982;2022-10-28T00:21:50;32.09;31.04;33.18;;
66455;Laerm;57651;51.438;5.982;2022-10-28T00:22:01;32.07;30.93;33.09;;
66455;Laerm;57651;51.438;5.982;2022-10-28T00:22:11;32.02;30.98;33.09;;
66455;Laerm;57651;51.438;5.982;2022-10-28T00:22:21;32.08;31.09;33.15;;
66455;Laerm;57651;51.438;5.982;2022-10-28T00:22:32;32.12;31.20;33.18;;
66455;Laerm;57651;51.438;5.982;2022-10-28T00:22:42;32.14;30.88;33.33;;
66455;Laerm;57651;51.438;5.982;2022-10-28T00:22:53;32.08;31.02;33.79;;
66455;Laerm;57651;51.438;5.982;2022-10-28T00:23:03;32.12;31.06;33.50;;
66455;Laerm;57651;51.438;5.982;2022-10-28T00:23:14;32.12;31.02;33.30;;
66455;Laerm;57651;51.438;5.982;2022-10-28T00:23:24;32.14;30.52;33.06;;
66455;Laerm;57651;51.438;5.982;2022-10-28T00:23:34;32.12;31.10;33.24;;
66455;Laerm;57651;51.438;5.982;2022-10-28T00:23:45;32.14;30.90;33.15;;
66455;Laerm;57651;51.438;5.982;2022-10-28T00:23:56;32.09;30.89;33.09;;
66455;Laerm;57651;51.438;5.982;2022-10-28T00:24:07;32.09;30.71;32.96;;
66455;Laerm;57651;51.438;5.982;2022-10-28T00:24:17;32.09;31.05;33.33;;
66455;Laerm;57651;51.438;5.982;2022-10-28T00:24:28;32.12;31.15;33.06;;
66455;Laerm;57651;51.438;5.982;2022-10-28T00:24:38;32.14;31.09;33.12;;
66455;Laerm;57651;51.438;5.982;2022-10-28T00:24:48;32.11;31.07;33.64;;
66455;Laerm;57651;51.438;5.982;2022-10-28T00:24:59;32.13;30.95;33.31;;
66455;Laerm;57651;51.438;5.982;2022-10-28T00:25:09;32.14;31.06;33.09;;
66455;Laerm;57651;51.438;5.982;2022-10-28T00:25:19;32.13;31.10;33.13;;
66455;Laerm;57651;51.438;5.982;2022-10-28T00:25:33;32.16;31.21;33.15;;
66455;Laerm;57651;51.438;5.982;2022-10-28T00:25:44;32.11;31.00;33.63;;
66455;Laerm;57651;51.438;5.982;2022-10-28T00:25:54;32.10;31.02;33.31;;
66455;Laerm;57651;51.438;5.982;2022-10-28T00:26:19;32.15;31.22;33.26;;
66455;Laerm;57651;51.438;5.982;2022-10-28T00:26:30;32.14;31.08;33.67;;
66455;Laerm;57651;51.438;5.982;2022-10-28T00:26:41;32.16;30.99;33.23;;
66455;Laerm;57651;51.438;5.982;2022-10-28T00:26:52;32.21;30.97;33.31;;
66455;Laerm;57651;51.438;5.982;2022-10-28T00:27:02;32.21;31.00;33.20;;
66455;Laerm;57651;51.438;5.982;2022-10-28T00:27:13;32.15;31.18;33.32;;
66455;Laerm;57651;51.438;5.982;2022-10-28T00:27:23;32.21;31.08;33.61;;
66455;Laerm;57651;51.438;5.982;2022-10-28T00:27:33;32.15;31.11;32.96;;
66455;Laerm;57651;51.438;5.982;2022-10-28T00:27:44;32.17;31.03;33.25;;
66455;Laerm;57651;51.438;5.982;2022-10-28T00:27:54;32.16;31.18;33.27;;
66455;Laerm;57651;51.438;5.982;2022-10-28T00:28:04;32.21;31.17;33.18;;
66455;Laerm;57651;51.438;5.982;2022-10-28T00:28:15;32.19;31.20;33.10;;
66455;Laerm;57651;51.438;5.982;2022-10-28T00:28:25;32.20;31.32;33.27;;
66455;Laerm;57651;51.438;5.982;2022-10-28T00:28:40;32.19;31.12;33.07;;
66455;Laerm;57651;51.438;5.982;2022-10-28T00:28:51;32.20;31.03;33.20;;
66455;Laerm;57651;51.438;5.982;2022-10-28T00:29:03;32.24;31.25;33.49;;
66455;Laerm;57651;51.438;5.982;2022-10-28T00:29:15;32.29;31.18;33.65;;
66455;Laerm;57651;51.438;5.982;2022-10-28T00:29:26;32.35;31.38;33.61;;
66455;Laerm;57651;51.438;5.982;2022-10-28T00:29:36;32.39;31.35;33.28;;
66455;Laerm;57651;51.438;5.982;2022-10-28T00:29:47;32.37;31.32;33.40;;
66455;Laerm;57651;51.438;5.982;2022-10-28T00:29:57;32.27;31.41;33.29;;
66455;Laerm;57651;51.438;5.982;2022-10-28T00:30:08;32.24;31.16;33.26;;
66455;Laerm;57651;51.438;5.982;2022-10-28T00:30:18;32.26;31.36;33.47;;
66455;Laerm;57651;51.438;5.982;2022-10-28T00:30:29;32.24;31.30;33.50;;
66455;Laerm;57651;51.438;5.982;2022-10-28T00:30:39;32.32;31.31;33.52;;
66455;Laerm;57651;51.438;5.982;2022-10-28T00:30:50;32.33;31.32;33.21;;
66455;Laerm;57651;51.438;5.982;2022-10-28T00:31:04;32.30;31.37;33.35;;
66455;Laerm;57651;51.438;5.982;2022-10-28T00:31:15;32.27;31.30;33.51;;
66455;Laerm;57651;51.438;5.982;2022-10-28T00:31:27;32.31;31.29;33.30;;
66455;Laerm;57651;51.438;5.982;2022-10-28T00:31:38;32.26;31.13;33.48;;
66455;Laerm;57651;51.438;5.982;2022-10-28T00:31:49;32.26;31.13;33.23;;
66455;Laerm;57651;51.438;5.982;2022-10-28T00:31:59;32.31;31.02;33.76;;
66455;Laerm;57651;51.438;5.982;2022-10-28T00:32:10;32.31;31.16;33.59;;
66455;Laerm;57651;51.438;5.982;2022-10-28T00:32:20;32.31;31.40;33.37;;
66455;Laerm;57651;51.438;5.982;2022-10-28T00:32:31;32.31;31.32;33.68;;
66455;Laerm;57651;51.438;5.982;2022-10-28T00:32:41;32.36;31.02;33.43;;
66455;Laerm;57651;51.438;5.982;2022-10-28T00:32:52;32.36;31.18;33.60;;
66455;Laerm;57651;51.438;5.982;2022-10-28T00:33:02;32.36;30.91;33.51;;
66455;Laerm;57651;51.438;5.982;2022-10-28T00:33:12;32.30;31.31;33.26;;
66455;Laerm;57651;51.438;5.982;2022-10-28T00:33:23;32.45;31.22;33.88;;
66455;Laerm;57651;51.438;5.982;2022-10-28T00:33:33;32.37;31.22;33.51;;
66455;Laerm;57651;51.438;5.982;2022-10-28T00:33:44;32.40;31.21;33.47;;
66455;Laerm;57651;51.438;5.982;2022-10-28T00:33:54;32.41;31.17;33.50;;
66455;Laerm;57651;51.438;5.982;2022-10-28T00:34:06;32.43;31.27;33.66;;
66455;Laerm;57651;51.438;5.982;2022-10-28T00:34:17;32.35;31.35;34.24;;
66455;Laerm;57651;51.438;5.982;2022-10-28T00:34:28;32.36;31.46;33.73;;
66455;Laerm;57651;51.438;5.982;2022-10-28T00:34:38;32.38;31.42;33.35;;
66455;Laerm;57651;51.438;5.982;2022-10-28T00:34:49;32.33;31.43;33.68;;
66455;Laerm;57651;51.438;5.982;2022-10-28T00:34:59;32.32;31.05;34.03;;
66455;Laerm;57651;51.438;5.982;2022-10-28T00:35:10;32.33;31.46;33.29;;
66455;Laerm;57651;51.438;5.982;2022-10-28T00:35:21;32.31;31.37;33.45;;
66455;Laerm;57651;51.438;5.982;2022-10-28T00:35:32;32.29;31.40;33.26;;
66455;Laerm;57651;51.438;5.982;2022-10-28T00:35:43;32.30;31.14;33.79;;
66455;Laerm;57651;51.438;5.982;2022-10-28T00:35:53;32.27;31.08;33.23;;
66455;Laerm;57651;51.438;5.982;2022-10-28T00:36:07;32.30;31.24;33.46;;
66455;Laerm;57651;51.438;5.982;2022-10-28T00:36:19;32.37;31.09;33.46;;
66455;Laerm;57651;51.438;5.982;2022-10-28T00:36:31;32.40;31.38;33.44;;
66455;Laerm;57651;51.438;5.982;2022-10-28T00:36:42;32.37;31.36;33.64;;
66455;Laerm;57651;51.438;5.982;2022-10-28T00:36:53;32.31;31.25;33.38;;
66455;Laerm;57651;51.438;5.982;2022-10-28T00:37:04;32.36;31.19;33.57;;
66455;Laerm;57651;51.438;5.982;2022-10-28T00:37:14;32.30;31.03;33.53;;
66455;Laerm;57651;51.438;5.982;2022-10-28T00:37:24;32.29;31.37;33.36;;
66455;Laerm;57651;51.438;5.982;2022-10-28T00:37:35;32.34;31.52;33.32;;
66455;Laerm;57651;51.438;5.982;2022-10-28T00:37:45;32.31;31.34;33.38;;
66455;Laerm;57651;51.438;5.982;2022-10-28T00:37:55;32.31;31.14;33.37;;
66455;Laerm;57651;51.438;5.982;2022-10-28T00:38:06;32.33;31.22;33.37;;
66455;Laerm;57651;51.438;5.982;2022-10-28T00:38:16;32.29;31.26;33.44;;
66455;Laerm;57651;51.438;5.982;2022-10-28T00:38:29;32.37;31.46;33.81;;
66455;Laerm;57651;51.438;5.982;2022-10-28T00:38:40;32.36;31.33;33.71;;
66455;Laerm;57651;51.438;5.982;2022-10-28T00:38:51;32.35;31.25;33.60;;
66455;Laerm;57651;51.438;5.982;2022-10-28T00:39:03;32.34;31.14;33.72;;
66455;Laerm;57651;51.438;5.982;2022-10-28T00:39:18;32.38;31.40;33.67;;
66455;Laerm;57651;51.438;5.982;2022-10-28T00:39:28;32.32;31.08;33.28;;
66455;Laerm;57651;51.438;5.982;2022-10-28T00:39:39;32.34;31.37;33.35;;
66455;Laerm;57651;51.438;5.982;2022-10-28T00:39:49;32.37;31.40;33.49;;
66455;Laerm;57651;51.438;5.982;2022-10-28T00:39:59;32.34;31.45;33.27;;
66455;Laerm;57651;51.438;5.982;2022-10-28T00:40:10;32.31;31.36;33.99;;
66455;Laerm;57651;51.438;5.982;2022-10-28T00:40:20;32.34;31.24;33.87;;
66455;Laerm;57651;51.438;5.982;2022-10-28T00:40:34;32.34;31.10;33.32;;
66455;Laerm;57651;51.438;5.982;2022-10-28T00:40:44;32.30;31.01;33.69;;
66455;Laerm;57651;51.438;5.982;2022-10-28T00:40:54;32.29;30.99;33.37;;
66455;Laerm;57651;51.438;5.982;2022-10-28T00:41:05;32.25;31.16;33.38;;
66455;Laerm;57651;51.438;5.982;2022-10-28T00:41:25;32.29;31.12;33.57;;
66455;Laerm;57651;51.438;5.982;2022-10-28T00:41:36;32.26;31.24;33.59;;
66455;Laerm;57651;51.438;5.982;2022-10-28T00:41:48;32.29;31.17;33.44;;
66455;Laerm;57651;51.438;5.982;2022-10-28T00:41:59;32.28;31.18;33.34;;
66455;Laerm;57651;51.438;5.982;2022-10-28T00:42:14;32.26;31.18;33.53;;
66455;Laerm;57651;51.438;5.982;2022-10-28T00:42:25;32.27;31.34;33.30;;
66455;Laerm;57651;51.438;5.982;2022-10-28T00:42:35;32.24;31.17;33.36;;
66455;Laerm;57651;51.438;5.982;2022-10-28T00:42:45;32.27;31.38;33.38;;
66455;Laerm;57651;51.438;5.982;2022-10-28T00:42:56;32.25;31.05;33.57;;
66455;Laerm;57651;51.438;5.982;2022-10-28T00:43:08;32.28;31.36;33.40;;
66455;Laerm;57651;51.438;5.982;2022-10-28T00:43:32;32.30;31.01;33.64;;
66455;Laerm;57651;51.438;5.982;2022-10-28T00:43:47;32.27;30.85;33.74;;
66455;Laerm;57651;51.438;5.982;2022-10-28T00:44:02;32.24;31.10;33.64;;
66455;Laerm;57651;51.438;5.982;2022-10-28T00:44:51;32.30;31.11;33.45;;
66455;Laerm;57651;51.438;5.982;2022-10-28T00:45:03;32.33;31.29;33.68;;
66455;Laerm;57651;51.438;5.982;2022-10-28T00:45:14;32.32;31.11;33.61;;
66455;Laerm;57651;51.438;5.982;2022-10-28T00:45:24;32.33;31.41;33.68;;
66455;Laerm;57651;51.438;5.982;2022-10-28T00:45:35;32.35;31.14;33.29;;
66455;Laerm;57651;51.438;5.982;2022-10-28T00:45:45;32.29;31.33;33.31;;
66455;Laerm;57651;51.438;5.982;2022-10-28T00:45:56;32.30;31.29;33.30;;
66455;Laerm;57651;51.438;5.982;2022-10-28T00:46:10;32.31;31.39;33.50;;
66455;Laerm;57651;51.438;5.982;2022-10-28T00:46:24;32.38;31.32;33.48;;
66455;Laerm;57651;51.438;5.982;2022-10-28T00:46:43;32.39;31.33;33.54;;
66455;Laerm;57651;51.438;5.982;2022-10-28T00:46:54;32.37;31.28;33.73;;
66455;Laerm;57651;51.438;5.982;2022-10-28T00:47:16;32.37;31.36;33.42;;
66455;Laerm;57651;51.438;5.982;2022-10-28T00:47:44;32.37;31.24;33.50;;
66455;Laerm;57651;51.438;5.982;2022-10-28T00:48:01;32.34;31.19;33.69;;
66455;Laerm;57651;51.438;5.982;2022-10-28T00:48:12;32.41;31.36;33.92;;
66455;Laerm;57651;51.438;5.982;2022-10-28T00:48:23;32.43;31.45;34.10;;
66455;Laerm;57651;51.438;5.982;2022-10-28T00:48:33;32.42;31.54;33.60;;
66455;Laerm;57651;51.438;5.982;2022-10-28T00:48:44;32.41;31.41;33.61;;
66455;Laerm;57651;51.438;5.982;2022-10-28T00:49:02;32.43;31.36;33.50;;
66455;Laerm;57651;51.438;5.982;2022-10-28T00:49:17;32.42;31.43;33.97;;
66455;Laerm;57651;51.438;5.982;2022-10-28T00:49:31;32.41;31.35;33.56;;
66455;Laerm;57651;51.438;5.982;2022-10-28T00:49:44;32.45;31.39;33.83;;
66455;Laerm;57651;51.438;5.982;2022-10-28T00:49:57;32.43;31.33;33.43;;
66455;Laerm;57651;51.438;5.982;2022-10-28T00:50:55;32.51;31.27;33.87;;
66455;Laerm;57651;51.438;5.982;2022-10-28T00:51:05;32.51;31.42;33.80;;
66455;Laerm;57651;51.438;5.982;2022-10-28T00:51:15;32.50;31.43;33.78;;
66455;Laerm;57651;51.438;5.982;2022-10-28T00:51:28;32.53;31.60;33.98;;
66455;Laerm;57651;51.438;5.982;2022-10-28T00:51:39;32.53;31.46;33.43;;
66455;Laerm;57651;51.438;5.982;2022-10-28T00:51:51;32.53;31.53;34.41;;
66455;Laerm;57651;51.438;5.982;2022-10-28T00:52:03;32.57;31.53;33.75;;
66455;Laerm;57651;51.438;5.982;2022-10-28T00:52:19;32.58;31.36;33.78;;
66455;Laerm;57651;51.438;5.982;2022-10-28T00:52:30;32.60;31.66;33.91;;
66455;Laerm;57651;51.438;5.982;2022-10-28T00:52:41;32.58;31.61;33.70;;
66455;Laerm;57651;51.438;5.982;2022-10-28T00:52:55;32.62;31.38;33.85;;
66455;Laerm;57651;51.438;5.982;2022-10-28T00:53:25;32.61;31.63;33.77;;
66455;Laerm;57651;51.438;5.982;2022-10-28T00:53:35;32.56;31.11;33.85;;
66455;Laerm;57651;51.438;5.982;2022-10-28T00:53:49;32.52;30.89;33.87;;
66455;Laerm;57651;51.438;5.982;2022-10-28T00:54:00;32.55;31.50;33.82;;
66455;Laerm;57651;51.438;5.982;2022-10-28T00:54:12;32.58;31.55;33.95;;
66455;Laerm;57651;51.438;5.982;2022-10-28T00:54:23;32.52;31.55;33.96;;
66455;Laerm;57651;51.438;5.982;2022-10-28T00:54:33;32.55;31.30;33.95;;
66455;Laerm;57651;51.438;5.982;2022-10-28T00:54:44;32.55;31.43;33.81;;
66455;Laerm;57651;51.438;5.982;2022-10-28T00:54:55;32.52;31.56;33.90;;
66455;Laerm;57651;51.438;5.982;2022-10-28T00:55:08;32.52;31.32;33.61;;
66455;Laerm;57651;51.438;5.982;2022-10-28T00:55:18;32.50;31.52;33.98;;
66455;Laerm;57651;51.438;5.982;2022-10-28T00:55:30;32.49;31.36;33.51;;
66455;Laerm;57651;51.438;5.982;2022-10-28T00:55:42;32.40;31.32;33.40;;
66455;Laerm;57651;51.438;5.982;2022-10-28T00:55:53;32.41;31.40;33.46;;
66455;Laerm;57651;51.438;5.982;2022-10-28T00:56:04;32.44;31.36;33.86;;
66455;Laerm;57651;51.438;5.982;2022-10-28T00:56:15;32.41;31.21;33.32;;
66455;Laerm;57651;51.438;5.982;2022-10-28T00:56:27;32.42;31.29;33.63;;
66455;Laerm;57651;51.438;5.982;2022-10-28T00:56:44;32.37;30.98;33.58;;
66455;Laerm;57651;51.438;5.982;2022-10-28T00:56:56;32.37;31.34;33.50;;
66455;Laerm;57651;51.438;5.982;2022-10-28T00:57:09;32.31;31.33;33.97;;
66455;Laerm;57651;51.438;5.982;2022-10-28T00:57:21;32.36;31.23;33.43;;
66455;Laerm;57651;51.438;5.982;2022-10-28T00:57:35;32.33;31.27;33.36;;
66455;Laerm;57651;51.438;5.982;2022-10-28T00:57:46;32.36;31.32;33.69;;
66455;Laerm;57651;51.438;5.982;2022-10-28T00:57:57;32.44;31.40;33.66;;
66455;Laerm;57651;51.438;5.982;2022-10-28T00:58:08;32.46;31.42;33.78;;
66455;Laerm;57651;51.438;5.982;2022-10-28T00:58:20;32.43;31.53;33.84;;
66455;Laerm;57651;51.438;5.982;2022-10-28T00:58:31;32.44;31.30;33.89;;
66455;Laerm;57651;51.438;5.982;2022-10-28T00:58:42;32.45;31.49;33.39;;
66455;Laerm;57651;51.438;5.982;2022-10-28T00:58:54;32.43;31.44;33.68;;
66455;Laerm;57651;51.438;5.982;2022-10-28T00:59:07;32.44;31.37;34.39;;
66455;Laerm;57651;51.438;5.982;2022-10-28T00:59:20;32.47;31.19;33.73;;
66455;Laerm;57651;51.438;5.982;2022-10-28T00:59:33;32.53;31.37;33.52;;
66455;Laerm;57651;51.438;5.982;2022-10-28T00:59:46;32.50;31.51;33.84;;
66455;Laerm;57651;51.438;5.982;2022-10-28T00:59:57;32.52;31.65;33.71;;
66455;Laerm;57651;51.438;5.982;2022-10-28T01:00:09;32.55;31.30;33.62;;
66455;Laerm;57651;51.438;5.982;2022-10-28T01:00:20;32.52;31.44;34.15;;
66455;Laerm;57651;51.438;5.982;2022-10-28T01:00:30;32.50;31.61;33.89;;
66455;Laerm;57651;51.438;5.982;2022-10-28T01:00:41;32.51;31.52;33.72;;
66455;Laerm;57651;51.438;5.982;2022-10-28T01:00:51;32.50;31.66;33.84;;
66455;Laerm;57651;51.438;5.982;2022-10-28T01:01:02;32.48;31.43;33.56;;
66455;Laerm;57651;51.438;5.982;2022-10-28T01:01:12;32.51;31.45;33.55;;
66455;Laerm;57651;51.438;5.982;2022-10-28T01:01:22;32.41;31.55;33.87;;
66455;Laerm;57651;51.438;5.982;2022-10-28T01:01:33;32.46;31.22;33.68;;
66455;Laerm;57651;51.438;5.982;2022-10-28T01:01:43;32.50;31.40;33.57;;
66455;Laerm;57651;51.438;5.982;2022-10-28T01:01:54;32.50;31.50;33.63;;
66455;Laerm;57651;51.438;5.982;2022-10-28T01:02:04;32.47;31.25;33.74;;
66455;Laerm;57651;51.438;5.982;2022-10-28T01:02:15;32.47;31.29;33.58;;
66455;Laerm;57651;51.438;5.982;2022-10-28T01:02:25;32.53;31.39;33.70;;
66455;Laerm;57651;51.438;5.982;2022-10-28T01:02:39;32.46;31.54;33.72;;
66455;Laerm;57651;51.438;5.982;2022-10-28T01:02:51;32.46;31.49;33.92;;
66455;Laerm;57651;51.438;5.982;2022-10-28T01:03:01;32.48;31.56;33.68;;
66455;Laerm;57651;51.438;5.982;2022-10-28T01:03:12;32.44;31.47;33.49;;
66455;Laerm;57651;51.438;5.982;2022-10-28T01:03:22;32.47;31.42;33.66;;
66455;Laerm;57651;51.438;5.982;2022-10-28T01:03:32;32.49;31.50;33.84;;
66455;Laerm;57651;51.438;5.982;2022-10-28T01:03:43;32.51;31.51;33.50;;
66455;Laerm;57651;51.438;5.982;2022-10-28T01:03:53;32.51;31.47;33.77;;
66455;Laerm;57651;51.438;5.982;2022-10-28T01:04:05;32.49;31.64;33.58;;
66455;Laerm;57651;51.438;5.982;2022-10-28T01:04:15;32.52;31.59;33.62;;
66455;Laerm;57651;51.438;5.982;2022-10-28T01:04:26;32.60;31.65;33.48;;
66455;Laerm;57651;51.438;5.982;2022-10-28T01:04:36;32.58;31.59;33.96;;
66455;Laerm;57651;51.438;5.982;2022-10-28T01:04:47;32.57;31.61;33.83;;
66455;Laerm;57651;51.438;5.982;2022-10-28T01:04:57;32.50;31.38;33.60;;
66455;Laerm;57651;51.438;5.982;2022-10-28T01:05:08;32.49;31.37;33.67;;
66455;Laerm;57651;51.438;5.982;2022-10-28T01:05:20;32.50;31.50;33.63;;
66455;Laerm;57651;51.438;5.982;2022-10-28T01:05:32;32.51;31.29;33.74;;
66455;Laerm;57651;51.438;5.982;2022-10-28T01:05:45;32.51;31.54;33.77;;